createdAt,value
2023-04-17T00:01:37.848Z,10.93
2023-04-17T00:04:04.850Z,14.10
2023-04-17T00:06:33.761Z,14.67
2023-04-17T00:09:00.539Z,13.17
2023-04-17T00:11:27.332Z,12.83
2023-04-17T00:13:53.894Z,14.53
2023-04-17T00:16:20.533Z,10.63
2023-04-17T00:18:47.176Z,11.73
2023-04-17T00:21:13.765Z,11.87
2023-04-17T00:23:40.602Z,11.93
2023-04-17T00:26:07.197Z,12.50
2023-04-17T00:28:33.815Z,12.63
2023-04-17T00:31:00.490Z,14.50
2023-04-17T00:33:27.157Z,13.53
2023-04-17T00:35:53.715Z,11.47
2023-04-17T00:38:20.263Z,12.60
2023-04-17T00:40:47.083Z,14.60
2023-04-17T00:43:13.687Z,12.17
2023-04-17T00:45:41.768Z,13.33
2023-04-17T00:48:10.696Z,10.93
2023-04-17T00:50:37.915Z,12.17
2023-04-17T00:53:04.861Z,13.13
2023-04-17T00:55:32.835Z,10.87
2023-04-17T00:57:59.997Z,14.63
2023-04-17T01:00:26.755Z,15.03
2023-04-17T01:02:55.470Z,16.47
2023-04-17T01:05:22.309Z,12.60
2023-04-17T01:07:49.171Z,13.97
2023-04-17T01:10:15.747Z,14.73
2023-04-17T01:12:46.495Z,13.80
2023-04-17T01:15:13.178Z,14.30
2023-04-17T01:17:39.898Z,12.17
2023-04-17T01:20:08.938Z,14.67
2023-04-17T01:22:35.768Z,16.83
2023-04-17T01:25:02.885Z,13.40
2023-04-17T01:27:29.475Z,12.37
2023-04-17T01:29:56.067Z,12.27
2023-04-17T01:32:22.670Z,14.03
2023-04-17T01:34:49.278Z,11.60
2023-04-17T01:37:16.088Z,12.07
2023-04-17T01:39:42.780Z,14.83
2023-04-17T01:42:09.499Z,14.37
2023-04-17T01:44:37.416Z,13.10
2023-04-17T01:47:04.170Z,13.77
2023-04-17T01:49:30.819Z,14.97
2023-04-17T01:51:57.412Z,14.70
2023-04-17T01:54:25.135Z,13.80
2023-04-17T01:56:51.762Z,14.80
2023-04-17T01:59:18.423Z,13.80
2023-04-17T02:01:45.219Z,14.00
2023-04-17T02:04:11.939Z,15.17
2023-04-17T02:06:38.656Z,13.33
2023-04-17T02:09:06.006Z,15.20
2023-04-17T02:11:32.718Z,12.90
2023-04-17T02:13:59.279Z,15.80
2023-04-17T02:16:25.995Z,14.03
2023-04-17T02:18:52.676Z,12.87
2023-04-17T02:21:19.266Z,17.00
2023-04-17T02:23:45.947Z,13.17
2023-04-17T02:26:12.598Z,13.87
2023-04-17T02:28:39.429Z,14.27
2023-04-17T02:31:08.460Z,14.63
2023-04-17T02:33:39.028Z,16.07
2023-04-17T02:36:06.300Z,14.43
2023-04-17T02:38:33.037Z,15.80
2023-04-17T02:40:59.945Z,18.70
2023-04-17T02:43:26.531Z,16.00
2023-04-17T02:45:53.096Z,12.60
2023-04-17T02:48:19.652Z,15.80
2023-04-17T02:50:46.227Z,18.63
2023-04-17T02:53:13.057Z,11.37
2023-04-17T02:55:39.723Z,14.17
2023-04-17T02:58:06.345Z,16.53
2023-04-17T03:00:32.985Z,13.70
2023-04-17T03:02:59.853Z,15.57
2023-04-17T03:05:30.027Z,15.27
2023-04-17T03:07:58.492Z,17.03
2023-04-17T03:10:25.142Z,15.70
2023-04-17T03:12:51.739Z,14.73
2023-04-17T03:15:18.303Z,16.07
2023-04-17T03:17:44.883Z,13.73
2023-04-17T03:20:11.729Z,13.37
2023-04-17T03:22:38.320Z,15.73
2023-04-17T03:25:05.748Z,14.23
2023-04-17T03:27:32.323Z,16.20
2023-04-17T03:29:58.893Z,15.53
2023-04-17T03:32:25.492Z,18.47
2023-04-17T03:34:52.308Z,17.13
2023-04-17T03:37:18.913Z,15.27
2023-04-17T03:39:45.562Z,15.13
2023-04-17T03:42:14.452Z,18.20
2023-04-17T03:44:41.128Z,15.60
2023-04-17T03:47:07.822Z,17.07
2023-04-17T03:49:34.459Z,15.93
2023-04-17T03:52:03.557Z,14.77
2023-04-17T03:54:35.051Z,16.07
2023-04-17T03:57:03.346Z,17.77
2023-04-17T03:59:33.510Z,17.53
2023-04-17T04:02:00.531Z,17.83
2023-04-17T04:04:27.686Z,17.43
2023-04-17T04:06:57.397Z,18.23
2023-04-17T04:09:27.234Z,18.00
2023-04-17T04:11:53.791Z,14.50
2023-04-17T04:14:20.391Z,19.23
2023-04-17T04:16:46.981Z,19.53
2023-04-17T04:19:13.889Z,17.33
2023-04-17T04:21:42.124Z,20.67
2023-04-17T04:24:09.988Z,16.27
2023-04-17T04:26:37.786Z,19.70
2023-04-17T04:29:04.429Z,18.77
2023-04-17T04:31:31.257Z,14.80
2023-04-17T04:33:58.813Z,17.20
2023-04-17T04:36:29.654Z,16.93
2023-04-17T04:39:00.722Z,25.17
2023-04-17T04:41:27.300Z,20.90
2023-04-17T04:43:54.302Z,17.57
2023-04-17T04:46:21.086Z,19.03
2023-04-17T04:48:47.712Z,21.83
2023-04-17T04:51:14.319Z,20.73
2023-04-17T04:53:40.874Z,15.50
2023-04-17T04:56:07.865Z,16.77
2023-04-17T04:58:34.461Z,18.57
2023-04-17T05:01:01.145Z,17.40
2023-04-17T05:03:27.824Z,20.77
2023-04-17T05:05:54.620Z,21.63
2023-04-17T05:08:21.329Z,15.43
2023-04-17T05:10:47.943Z,18.73
2023-04-17T05:13:14.640Z,19.63
2023-04-17T05:15:43.961Z,21.83
2023-04-17T05:18:10.575Z,20.23
2023-04-17T05:20:37.820Z,20.50
2023-04-17T05:23:04.491Z,22.57
2023-04-17T05:25:31.102Z,19.97
2023-04-17T05:27:57.695Z,18.97
2023-04-17T05:30:24.384Z,18.20
2023-04-17T05:32:51.712Z,18.97
2023-04-17T05:35:18.475Z,22.27
2023-04-17T05:37:45.179Z,18.87
2023-04-17T05:40:12.137Z,21.10
2023-04-17T05:42:38.889Z,20.67
2023-04-17T05:45:05.927Z,23.30
2023-04-17T05:47:32.620Z,24.90
2023-04-17T05:49:59.870Z,21.67
2023-04-17T05:52:26.504Z,21.07
2023-04-17T05:54:53.100Z,18.00
2023-04-17T05:57:19.925Z,25.10
2023-04-17T05:59:47.090Z,28.87
2023-04-17T06:02:13.696Z,22.90
2023-04-17T06:04:41.474Z,23.40
2023-04-17T06:07:08.847Z,25.00
2023-04-17T06:09:36.667Z,26.00
2023-04-17T06:12:04.586Z,30.00
2023-04-17T06:14:31.653Z,24.37
2023-04-17T06:16:58.362Z,23.93
2023-04-17T06:19:25.001Z,27.77
2023-04-17T06:21:51.716Z,24.57
2023-04-17T06:24:18.974Z,26.87
2023-04-17T06:26:45.784Z,27.33
2023-04-17T06:29:13.769Z,28.70
2023-04-17T06:31:40.756Z,29.47
2023-04-17T06:34:07.392Z,27.73
2023-04-17T06:36:33.966Z,24.57
2023-04-17T06:39:00.606Z,22.90
2023-04-17T06:41:27.158Z,28.77
2023-04-17T06:43:53.742Z,28.27
2023-04-17T06:46:22.335Z,23.07
2023-04-17T06:48:52.002Z,22.10
2023-04-17T06:51:21.756Z,23.83
2023-04-17T06:53:48.570Z,18.80
2023-04-17T06:56:15.412Z,23.90
2023-04-17T06:58:45.875Z,22.13
2023-04-17T07:01:13.595Z,19.17
2023-04-17T07:03:41.595Z,19.00
2023-04-17T07:06:08.746Z,18.13
2023-04-17T07:08:35.586Z,20.20
2023-04-17T07:11:02.703Z,20.00
2023-04-17T07:13:31.348Z,17.77
2023-04-17T07:15:59.156Z,18.90
2023-04-17T07:18:26.756Z,16.07
2023-04-17T07:20:53.389Z,20.47
2023-04-17T07:23:20.100Z,16.77
2023-04-17T07:25:46.718Z,18.43
2023-04-17T07:28:14.312Z,21.57
2023-04-17T07:30:43.769Z,19.67
2023-04-17T07:33:10.580Z,18.90
2023-04-17T07:35:37.331Z,16.57
2023-04-17T07:38:04.162Z,17.17
2023-04-17T07:40:32.025Z,18.77
2023-04-17T07:42:58.706Z,16.97
2023-04-17T07:45:29.435Z,14.83
2023-04-17T07:47:56.115Z,15.63
2023-04-17T07:50:23.529Z,15.77
2023-04-17T07:52:50.215Z,17.03
2023-04-17T07:55:16.897Z,16.33
2023-04-17T07:57:46.457Z,15.93
2023-04-17T08:00:16.235Z,19.10
2023-04-17T08:02:43.522Z,13.63
2023-04-17T08:05:10.393Z,18.33
2023-04-17T08:07:37.458Z,17.43
2023-04-17T08:10:04.935Z,15.47
2023-04-17T08:12:31.515Z,17.53
2023-04-17T08:14:58.082Z,14.97
2023-04-17T08:17:26.096Z,16.43
2023-04-17T08:19:53.805Z,12.80
2023-04-17T08:22:21.876Z,12.00
2023-04-17T08:24:49.433Z,14.00
2023-04-17T08:27:16.349Z,13.37
2023-04-17T08:29:46.211Z,12.67
2023-04-17T08:32:14.829Z,11.93
2023-04-17T08:34:44.162Z,10.27
2023-04-17T08:37:10.876Z,13.17
2023-04-17T08:39:37.444Z,10.27
2023-04-17T08:42:12.102Z,11.83
2023-04-17T08:44:43.224Z,14.37
2023-04-17T08:47:09.814Z,10.18
2023-04-17T08:49:36.753Z,9.80
2023-04-17T08:52:04.666Z,10.73
2023-04-17T08:54:35.479Z,11.15
2023-04-17T08:57:03.909Z,8.88
2023-04-17T08:59:31.487Z,8.98
2023-04-17T09:02:06.124Z,7.80
2023-04-17T09:04:40.406Z,7.60
2023-04-17T09:07:08.984Z,7.93
2023-04-17T09:09:52.944Z,7.82
2023-04-17T09:12:24.529Z,7.93
2023-04-17T09:14:51.491Z,7.30
2023-04-17T09:17:20.067Z,6.95
2023-04-17T09:20:07.257Z,8.05
2023-04-17T09:22:35.488Z,8.55
2023-04-17T09:25:02.344Z,9.38
2023-04-17T09:27:29.553Z,8.57
2023-04-17T09:29:57.933Z,8.93
2023-04-17T09:32:25.987Z,9.50
2023-04-17T09:34:53.862Z,8.00
2023-04-17T09:37:20.943Z,7.78
2023-04-17T09:39:58.889Z,7.18
2023-04-17T09:42:26.580Z,6.63
2023-04-17T09:44:54.576Z,7.00
2023-04-17T09:47:25.123Z,7.18
2023-04-17T09:49:52.844Z,8.90
2023-04-17T09:52:23.347Z,8.45
2023-04-17T09:54:53.894Z,8.18
2023-04-17T09:57:21.070Z,8.90
2023-04-17T09:59:49.209Z,8.40
2023-04-17T10:02:21.165Z,7.95
2023-04-17T10:04:47.994Z,7.40
2023-04-17T10:07:16.170Z,7.05
2023-04-17T10:09:45.410Z,7.88
2023-04-17T10:12:18.535Z,7.90
2023-04-17T10:14:48.162Z,6.93
2023-04-17T10:17:31.526Z,7.03
2023-04-17T10:20:23.124Z,7.35
2023-04-17T10:22:57.028Z,7.07
2023-04-17T10:25:24.406Z,6.90
2023-04-17T10:27:58.370Z,7.50
2023-04-17T10:30:45.288Z,6.97
2023-04-17T10:33:21.533Z,6.85
2023-04-17T10:35:48.729Z,6.90
2023-04-17T10:38:16.167Z,7.28
2023-04-17T10:40:43.726Z,6.90
2023-04-17T10:43:12.549Z,7.40
2023-04-17T10:45:58.229Z,6.65
2023-04-17T10:48:42.201Z,8.00
2023-04-17T10:51:29.161Z,5.88
2023-04-17T10:53:56.903Z,6.47
2023-04-17T10:56:38.293Z,6.95
2023-04-17T10:59:10.912Z,6.47
2023-04-17T11:01:37.827Z,6.75
2023-04-17T11:04:06.069Z,6.78
2023-04-17T11:06:37.259Z,6.70
2023-04-17T11:09:07.394Z,7.00
2023-04-17T11:11:44.489Z,7.45
2023-04-17T11:14:19.470Z,7.40
2023-04-17T11:16:48.394Z,7.22
2023-04-17T11:19:23.557Z,7.50
2023-04-17T11:21:57.123Z,10.43
2023-04-17T11:24:28.782Z,6.95
2023-04-17T11:26:58.224Z,6.80
2023-04-17T11:29:26.104Z,7.05
2023-04-17T11:31:55.543Z,7.35
2023-04-17T11:34:22.324Z,5.85
2023-04-17T11:36:57.217Z,6.78
2023-04-17T11:39:25.646Z,6.88
2023-04-17T11:41:52.888Z,5.53
2023-04-17T11:44:20.874Z,8.38
2023-04-17T11:46:51.498Z,6.40
2023-04-17T11:49:28.899Z,7.32
2023-04-17T11:51:59.762Z,5.78
2023-04-17T11:54:27.525Z,4.60
2023-04-17T11:57:11.703Z,5.60
2023-04-17T11:59:41.901Z,6.40
2023-04-17T12:02:09.399Z,5.45
2023-04-17T12:04:37.447Z,5.47
2023-04-17T12:07:05.811Z,6.45
2023-04-17T12:09:36.510Z,5.15
2023-04-17T12:12:07.077Z,4.88
2023-04-17T12:14:33.798Z,4.80
2023-04-17T12:17:01.048Z,5.45
2023-04-17T12:19:29.154Z,5.38
2023-04-17T12:21:56.477Z,4.97
2023-04-17T12:24:24.724Z,4.80
2023-04-17T12:26:51.864Z,5.65
2023-04-17T12:29:22.032Z,5.47
2023-04-17T12:31:56.335Z,5.43
2023-04-17T12:34:23.117Z,4.72
2023-04-17T12:36:50.912Z,4.18
2023-04-17T12:39:18.382Z,5.57
2023-04-17T12:41:45.162Z,6.37
2023-04-17T12:44:12.084Z,5.32
2023-04-17T12:46:38.902Z,7.35
2023-04-17T12:49:05.467Z,5.22
2023-04-17T12:51:37.329Z,6.20
2023-04-17T12:54:03.947Z,6.57
2023-04-17T12:56:30.527Z,6.28
2023-04-17T12:58:57.146Z,6.63
2023-04-17T13:01:25.148Z,6.22
2023-04-17T13:03:51.835Z,5.60
2023-04-17T13:06:18.937Z,6.45
2023-04-17T13:08:45.562Z,6.55
2023-04-17T13:11:12.157Z,6.72
2023-04-17T13:13:38.713Z,6.60
2023-04-17T13:16:05.804Z,9.77
2023-04-17T13:18:32.379Z,6.55
2023-04-17T13:20:58.979Z,7.78
2023-04-17T13:23:25.525Z,7.80
2023-04-17T13:25:52.132Z,7.38
2023-04-17T13:28:18.743Z,7.15
2023-04-17T13:30:45.501Z,6.60
2023-04-17T13:33:12.528Z,5.32
2023-04-17T13:35:39.118Z,7.50
2023-04-17T13:38:06.255Z,7.82
2023-04-17T13:40:32.807Z,7.45
2023-04-17T13:43:00.600Z,6.78
2023-04-17T13:45:27.283Z,7.50
2023-04-17T13:47:53.878Z,8.50
2023-04-17T13:50:20.524Z,8.25
2023-04-17T13:52:47.072Z,7.90
2023-04-17T13:55:15.938Z,7.45
2023-04-17T13:57:42.621Z,7.97
2023-04-17T14:00:10.750Z,7.68
2023-04-17T14:02:37.479Z,6.15
2023-04-17T14:05:04.896Z,6.68
2023-04-17T14:07:31.640Z,7.75
2023-04-17T14:09:58.416Z,7.70
2023-04-17T14:12:24.989Z,10.00
2023-04-17T14:14:51.553Z,8.10
2023-04-17T14:17:18.305Z,8.25
2023-04-17T14:19:44.992Z,9.23
2023-04-17T14:22:11.565Z,6.82
2023-04-17T14:24:38.214Z,7.80
2023-04-17T14:27:04.785Z,9.73
2023-04-17T14:29:31.552Z,7.57
2023-04-17T14:31:58.291Z,7.57
2023-04-17T14:34:25.176Z,7.45
2023-04-17T14:36:51.735Z,9.07
2023-04-17T14:39:19.627Z,8.13
2023-04-17T14:41:46.269Z,7.32
2023-04-17T14:44:13.118Z,8.37
2023-04-17T14:46:40.330Z,10.43
2023-04-17T14:49:07.127Z,8.97
2023-04-17T14:51:33.681Z,8.17
2023-04-17T14:54:00.327Z,6.57
2023-04-17T14:56:27.184Z,7.80
2023-04-17T14:58:53.784Z,9.50
2023-04-17T15:01:20.507Z,8.67
2023-04-17T15:03:48.444Z,7.13
2023-04-17T15:06:16.516Z,9.30
2023-04-17T15:08:43.256Z,7.50
2023-04-17T15:11:10.342Z,7.73
2023-04-17T15:13:37.154Z,7.83
2023-04-17T15:16:04.037Z,7.43
2023-04-17T15:18:34.111Z,8.27
2023-04-17T15:21:00.850Z,6.63
2023-04-17T15:23:29.502Z,6.57
2023-04-17T15:25:57.744Z,6.43
2023-04-17T15:28:25.181Z,8.27
2023-04-17T15:30:51.763Z,6.13
2023-04-17T15:33:18.339Z,6.77
2023-04-17T15:35:45.111Z,7.47
2023-04-17T15:38:12.079Z,5.07
2023-04-17T15:40:38.834Z,6.90
2023-04-17T15:43:05.448Z,9.17
2023-04-17T15:45:32.143Z,8.87
2023-04-17T15:48:00.752Z,8.83
2023-04-17T15:50:27.428Z,8.50
2023-04-17T15:52:54.040Z,6.03
2023-04-17T15:55:20.643Z,5.63
2023-04-17T15:57:47.259Z,5.40
2023-04-17T16:00:14.334Z,4.73
2023-04-17T16:02:41.138Z,5.10
2023-04-17T16:05:08.235Z,3.73
2023-04-17T16:07:35.044Z,8.83
2023-04-17T16:10:01.644Z,8.13
2023-04-17T16:12:28.311Z,7.00
2023-04-17T16:14:54.933Z,7.70
2023-04-17T16:17:21.823Z,8.70
2023-04-17T16:19:50.487Z,7.97
2023-04-17T16:22:18.708Z,7.43
2023-04-17T16:24:45.278Z,6.10
2023-04-17T16:27:11.923Z,5.43
2023-04-17T16:29:38.483Z,11.17
2023-04-17T16:32:05.222Z,6.77
2023-04-17T16:34:31.874Z,7.63
2023-04-17T16:36:58.449Z,6.33
2023-04-17T16:39:25.564Z,8.80
2023-04-17T16:41:52.708Z,7.80
2023-04-17T16:44:19.588Z,8.60
2023-04-17T16:49:18.565Z,7.83
2023-04-17T16:51:45.303Z,5.83
2023-04-17T16:54:12.245Z,8.45
2023-04-17T16:56:39.067Z,5.70
2023-04-17T16:59:05.876Z,7.80
2023-04-17T17:01:32.867Z,7.57
2023-04-17T17:03:59.847Z,7.37
2023-04-17T17:06:26.960Z,5.80
2023-04-17T17:08:55.272Z,7.67
2023-04-17T17:11:22.224Z,7.17
2023-04-17T17:13:49.715Z,5.13
2023-04-17T17:16:17.109Z,8.03
2023-04-17T17:18:44.567Z,6.23
2023-04-17T17:21:11.170Z,4.53
2023-04-17T17:23:38.187Z,7.30
2023-04-17T17:26:05.520Z,6.70
2023-04-17T17:28:32.770Z,6.73
2023-04-17T17:31:03.822Z,5.33
2023-04-17T17:33:32.268Z,8.00
2023-04-17T17:35:59.466Z,5.30
2023-04-17T17:38:30.703Z,6.27
2023-04-17T17:40:57.442Z,6.73
2023-04-17T17:43:24.254Z,5.93
2023-04-17T17:45:51.148Z,6.97
2023-04-17T17:48:20.102Z,7.63
2023-04-17T17:50:47.871Z,5.57
2023-04-17T17:53:16.686Z,7.43
2023-04-17T17:55:43.807Z,6.13
2023-04-17T17:58:10.463Z,6.27
2023-04-17T18:00:37.073Z,5.93
2023-04-17T18:03:03.897Z,6.83
2023-04-17T18:05:30.869Z,6.90
2023-04-17T18:07:57.425Z,6.07
2023-04-17T18:10:24.041Z,5.57
2023-04-17T18:12:50.640Z,6.57
2023-04-17T18:15:17.510Z,5.13
2023-04-17T18:17:44.096Z,6.77
2023-04-17T18:20:11.015Z,7.40
2023-04-17T18:22:38.319Z,4.10
2023-04-17T18:25:06.828Z,8.07
2023-04-17T18:27:36.158Z,3.93
2023-04-17T18:30:05.196Z,5.20
2023-04-17T18:32:32.289Z,4.70
2023-04-17T18:34:59.680Z,4.37
2023-04-17T18:37:26.948Z,4.57
2023-04-17T18:39:54.056Z,8.77
2023-04-17T18:42:21.057Z,6.27
2023-04-17T18:44:47.907Z,3.93
2023-04-17T18:47:14.501Z,4.27
2023-04-17T18:49:41.118Z,4.90
2023-04-17T18:52:07.814Z,5.93
2023-04-17T18:54:35.320Z,3.90
2023-04-17T18:57:01.940Z,6.77
2023-04-17T18:59:28.568Z,5.93
2023-04-17T19:01:55.192Z,4.17
2023-04-17T19:04:21.813Z,6.57
2023-04-17T19:06:48.375Z,5.87
2023-04-17T19:09:15.027Z,7.30
2023-04-17T19:11:41.612Z,5.60
2023-04-17T19:14:08.172Z,4.57
2023-04-17T19:16:34.852Z,5.90
2023-04-17T19:19:01.462Z,4.37
2023-04-17T19:21:28.195Z,11.20
2023-04-17T19:23:54.797Z,5.30
2023-04-17T19:26:21.356Z,6.60
2023-04-17T19:28:48.353Z,5.73
2023-04-17T19:31:15.172Z,4.30
2023-04-17T19:33:41.801Z,5.53
2023-04-17T19:36:08.526Z,4.57
2023-04-17T19:38:35.078Z,4.40
2023-04-17T19:41:17.756Z,4.97
2023-04-17T19:43:51.376Z,7.20
2023-04-17T19:46:19.003Z,7.20
2023-04-17T19:48:46.178Z,4.87
2023-04-17T19:51:14.408Z,3.90
2023-04-17T19:53:42.402Z,5.53
2023-04-17T19:56:09.685Z,6.40
2023-04-17T19:58:37.422Z,4.60
2023-04-17T20:01:04.423Z,4.30
2023-04-17T20:03:32.363Z,5.97
2023-04-17T20:05:59.952Z,8.40
2023-04-17T20:08:26.662Z,3.83
2023-04-17T20:10:53.394Z,8.90
2023-04-17T20:13:20.075Z,4.97
2023-04-17T20:15:46.657Z,6.30
2023-04-17T20:18:13.596Z,5.33
2023-04-17T20:20:40.265Z,4.93
2023-04-17T20:23:06.981Z,5.53
2023-04-17T20:25:33.671Z,4.83
2023-04-17T20:28:02.593Z,6.45
2023-04-17T20:30:29.461Z,5.70
2023-04-17T20:32:56.580Z,6.78
2023-04-17T20:35:26.301Z,6.53
2023-04-17T20:37:52.959Z,7.80
2023-04-17T20:40:20.024Z,7.30
2023-04-17T20:42:47.306Z,6.00
2023-04-17T20:45:13.896Z,4.07
2023-04-17T20:47:55.812Z,4.17
2023-04-17T20:50:23.806Z,8.00
2023-04-17T20:52:50.473Z,7.03
2023-04-17T20:55:18.638Z,4.63
2023-04-17T20:57:45.449Z,5.37
2023-04-17T21:00:12.654Z,7.67
2023-04-17T21:02:39.384Z,4.57
2023-04-17T21:05:07.323Z,6.07
2023-04-17T21:07:33.994Z,5.90
2023-04-17T21:10:00.558Z,4.70
2023-04-17T21:12:27.143Z,7.57
2023-04-17T21:14:54.228Z,4.20
2023-04-17T21:17:20.849Z,5.60
2023-04-17T21:19:47.532Z,5.17
2023-04-17T21:22:14.183Z,4.83
2023-04-17T21:24:41.038Z,6.07
2023-04-17T21:27:07.585Z,6.17
2023-04-17T21:29:34.156Z,5.13
2023-04-17T21:32:00.766Z,4.47
2023-04-17T21:34:27.435Z,6.07
2023-04-17T21:36:54.403Z,7.03
2023-04-17T21:39:21.829Z,6.63
2023-04-17T21:41:48.843Z,5.27
2023-04-17T21:44:15.776Z,6.73
2023-04-17T21:46:46.077Z,6.70
2023-04-17T21:49:13.150Z,4.90
2023-04-17T21:51:39.773Z,7.27
2023-04-17T21:54:07.519Z,5.87
2023-04-17T21:56:34.095Z,5.53
2023-04-17T21:59:00.889Z,5.63
2023-04-17T22:01:27.989Z,4.53
2023-04-17T22:03:54.723Z,5.00
2023-04-17T22:06:21.459Z,4.03
2023-04-17T22:08:48.125Z,7.40
2023-04-17T22:11:14.749Z,10.17
2023-04-17T22:13:41.296Z,3.73
2023-04-17T22:16:07.906Z,4.00
2023-04-17T22:18:34.470Z,4.57
2023-04-17T22:21:01.041Z,4.63
2023-04-17T22:23:27.640Z,7.33
2023-04-17T22:25:54.204Z,5.07
2023-04-17T22:28:20.825Z,4.43
2023-04-17T22:30:51.632Z,7.33
2023-04-17T22:33:18.376Z,4.97
2023-04-17T22:35:45.062Z,4.10
2023-04-17T22:38:11.829Z,4.70
2023-04-17T22:40:38.650Z,5.33
2023-04-17T22:43:05.640Z,9.57
2023-04-17T22:45:32.619Z,4.67
2023-04-17T22:47:59.301Z,3.93
2023-04-17T22:50:25.970Z,4.33
2023-04-17T22:52:52.512Z,5.37
2023-04-17T22:55:19.076Z,5.47
2023-04-17T22:57:45.637Z,4.20
2023-04-17T23:00:12.808Z,8.20
2023-04-17T23:02:39.588Z,5.23
2023-04-17T23:05:07.146Z,9.07
2023-04-17T23:07:33.778Z,5.77
2023-04-17T23:10:00.453Z,5.77
2023-04-17T23:12:27.034Z,3.93
2023-04-17T23:14:53.610Z,3.97
2023-04-17T23:17:20.274Z,7.37
2023-04-17T23:19:47.921Z,6.37
2023-04-17T23:22:14.633Z,3.73
2023-04-17T23:24:41.241Z,4.50
2023-04-17T23:27:07.834Z,6.83
2023-04-17T23:29:34.412Z,4.07
2023-04-17T23:32:01.095Z,3.90
2023-04-17T23:34:27.952Z,7.33
2023-04-17T23:36:54.581Z,6.53
2023-04-17T23:39:21.198Z,6.23
2023-04-17T23:41:47.771Z,4.70
2023-04-17T23:44:14.601Z,4.00
2023-04-17T23:46:41.734Z,6.03
2023-04-17T23:49:08.545Z,4.43
2023-04-17T23:51:35.110Z,3.27
2023-04-17T23:54:01.798Z,7.53
2023-04-17T23:56:31.462Z,7.03
2023-04-17T23:58:58.037Z,7.40
